Time;durP1;ratioP1;P1;durP2;ratioP2;P2;SDS_P1;SDS_P2;PMS_P1;PMS_P2;Temp;Humidity;BMP_temperature;BMP_pressure;BME280_temperature;BME280_humidity;BME280_pressure;Samples;Min_cycle;Max_cycle;Signal;HPM_P1;HPM_P2
2023/10/21 00:00:05;;;;;;;0.52;0.52;;;;;;;4.84;64.51;99429.09;5007655;28;20026;-61
2023/10/21 00:02:30;;;;;;;1.63;0.93;;;;;;;4.83;64.61;99420.56;5007281;28;20429;-61
2023/10/21 00:04:56;;;;;;;0.50;0.50;;;;;;;4.65;65.14;99438.56;5007412;28;20161;-60
2023/10/21 00:07:21;;;;;;;0.60;0.60;;;;;;;4.65;65.54;99448.84;5007379;28;20027;-59
2023/10/21 00:09:46;;;;;;;1.02;0.88;;;;;;;4.66;65.13;99392.28;5007329;28;20222;-60
2023/10/21 00:12:12;;;;;;;0.95;0.65;;;;;;;4.52;65.85;99383.72;5007196;28;20032;-61
2023/10/21 00:14:37;;;;;;;2.70;0.82;;;;;;;4.68;65.95;99400.84;5007339;28;20049;-60
2023/10/21 00:17:04;;;;;;;0.52;0.52;;;;;;;4.74;65.68;99381.13;5007120;28;20034;-61
2023/10/21 00:19:30;;;;;;;0.50;0.50;;;;;;;4.64;65.99;99390.56;5007008;28;20594;-60
2023/10/21 00:21:55;;;;;;;0.88;0.68;;;;;;;4.53;66.58;99401.72;5006790;28;20051;-60
2023/10/21 00:24:20;;;;;;;0.50;0.50;;;;;;;4.54;66.64;99390.56;5006973;28;20109;-60
2023/10/21 00:26:47;;;;;;;0.47;0.47;;;;;;;4.40;67.07;99382.84;5006098;28;20030;-60
2023/10/21 00:29:14;;;;;;;0.52;0.50;;;;;;;4.47;67.11;99414.56;5006834;28;20022;-60
2023/10/21 00:31:43;;;;;;;1.20;1.02;;;;;;;4.41;67.33;99397.41;5006575;28;20038;-60
2023/10/21 00:34:11;;;;;;;0.77;0.50;;;;;;;4.51;67.29;99402.56;5006787;28;20113;-60
2023/10/21 00:36:37;;;;;;;0.50;0.50;;;;;;;4.46;67.53;99376.84;5006874;28;20049;-62
2023/10/21 00:39:03;;;;;;;0.60;0.60;;;;;;;4.60;67.25;99402.56;5006708;28;20494;-59
2023/10/21 00:41:28;;;;;;;0.50;0.50;;;;;;;4.35;67.90;99410.25;5006478;28;20114;-59
2023/10/21 00:43:54;;;;;;;0.40;0.40;;;;;;;4.39;68.00;99437.69;5006438;28;20490;-59
2023/10/21 00:46:20;;;;;;;0.50;0.50;;;;;;;4.49;67.67;99407.69;5006387;28;20034;-60
2023/10/21 00:48:47;;;;;;;0.70;0.70;;;;;;;4.33;68.37;99396.53;5006544;28;20053;-60
2023/10/21 00:51:13;;;;;;;0.50;0.50;;;;;;;4.45;68.02;99436.84;5006215;28;20027;-60
2023/10/21 00:53:39;;;;;;;0.50;0.50;;;;;;;4.45;67.82;99440.28;5006405;28;20022;-59
2023/10/21 00:56:08;;;;;;;0.50;0.50;;;;;;;4.82;66.86;99415.41;5006486;28;20026;-60
2023/10/21 00:58:35;;;;;;;0.50;0.50;;;;;;;4.75;67.00;99434.25;5006424;28;20034;-60
2023/10/21 01:01:02;;;;;;;2.97;2.58;;;;;;;4.65;66.97;99421.41;5006173;28;20031;-60
2023/10/21 01:03:29;;;;;;;0.40;0.40;;;;;;;4.63;67.01;99428.28;5006399;28;20030;-60
2023/10/21 01:05:54;;;;;;;0.60;0.60;;;;;;;4.90;66.05;99434.28;5006323;28;20423;-60
2023/10/21 01:08:20;;;;;;;1.00;0.90;;;;;;;4.95;65.56;99447.13;5021056;28;20606;-58
2023/10/21 01:10:45;;;;;;;0.40;0.40;;;;;;;5.12;64.70;99443.66;5006276;28;20030;-60
2023/10/21 01:13:11;;;;;;;0.50;0.50;;;;;;;4.89;65.45;99364.84;5006027;28;20022;-60
2023/10/21 01:15:36;;;;;;;0.63;0.57;;;;;;;5.00;65.35;99453.09;5006238;28;20032;-61
2023/10/21 01:18:03;;;;;;;0.90;0.65;;;;;;;4.95;65.14;99423.97;5006099;28;20106;-61
2023/10/21 01:20:29;;;;;;;0.50;0.50;;;;;;;4.86;65.71;99458.25;5005881;28;20042;-60
2023/10/21 01:22:58;;;;;;;0.45;0.45;;;;;;;4.82;65.78;99436.00;5004454;28;20026;-60
2023/10/21 01:25:24;;;;;;;0.93;0.73;;;;;;;4.77;66.03;99448.84;5005932;28;20023;-61
2023/10/21 01:27:56;;;;;;;1.40;0.60;;;;;;;5.01;65.45;99441.13;5006017;28;20037;-61
2023/10/21 01:30:22;;;;;;;0.40;0.40;;;;;;;4.76;66.26;99441.13;5005972;28;20018;-61
2023/10/21 01:32:48;;;;;;;1.02;0.63;;;;;;;5.02;65.41;99440.25;5005872;28;20022;-60
2023/10/21 01:35:17;;;;;;;0.50;0.50;;;;;;;4.75;66.01;99447.97;5005897;28;20022;-60
2023/10/21 01:37:44;;;;;;;1.05;0.95;;;;;;;4.71;66.38;99430.84;5005991;28;20455;-60
2023/10/21 01:40:10;;;;;;;0.50;0.50;;;;;;;4.94;65.52;99440.25;5005703;28;20034;-61
2023/10/21 01:42:40;;;;;;;0.50;0.50;;;;;;;4.98;65.61;99449.69;5005757;28;20023;-61
2023/10/21 01:45:07;;;;;;;0.40;0.40;;;;;;;4.77;66.18;99429.97;5005886;28;20030;-61
2023/10/21 01:47:33;;;;;;;0.50;0.50;;;;;;;4.87;66.09;99447.13;5005959;28;20023;-61
2023/10/21 01:49:59;;;;;;;0.50;0.50;;;;;;;4.79;66.12;99446.28;5005775;28;20033;-61
2023/10/21 01:52:25;;;;;;;0.52;0.52;;;;;;;4.80;66.54;99468.56;5005657;28;20027;-61
2023/10/21 01:54:53;;;;;;;0.60;0.60;;;;;;;4.74;66.42;99450.56;5005787;28;20113;-60
2023/10/21 01:57:19;;;;;;;0.50;0.50;;;;;;;4.76;66.77;99448.84;5005797;28;20118;-61
2023/10/21 01:59:44;;;;;;;0.40;0.40;;;;;;;4.95;66.13;99453.13;5005795;28;20022;-61
2023/10/21 02:02:10;;;;;;;0.95;0.73;;;;;;;5.06;65.89;99475.41;5005045;28;20165;-60
2023/10/21 02:04:35;;;;;;;0.45;0.45;;;;;;;4.76;66.65;99441.13;5005661;28;20161;-61
2023/10/21 02:07:00;;;;;;;0.57;0.57;;;;;;;4.79;66.94;99421.41;5005650;28;20054;-60
2023/10/21 02:09:26;;;;;;;0.50;0.50;;;;;;;4.76;67.16;99436.84;5005532;28;20029;-60
2023/10/21 02:11:55;;;;;;;0.50;0.50;;;;;;;4.51;67.96;99418.84;5005502;28;20022;-59
2023/10/21 02:14:22;;;;;;;2.58;0.80;;;;;;;4.53;67.94;99427.41;5005663;28;20086;-59
2023/10/21 02:16:51;;;;;;;0.95;0.95;;;;;;;4.70;67.61;99390.56;5005643;28;20010;-61
2023/10/21 02:19:16;;;;;;;0.50;0.50;;;;;;;4.64;67.51;99404.28;5005421;28;20049;-59
2023/10/21 02:21:42;;;;;;;0.60;0.60;;;;;;;4.46;68.25;99405.13;5005276;28;20046;-60
2023/10/21 02:24:07;;;;;;;0.50;0.50;;;;;;;4.41;68.66;99414.56;5005298;28;20018;-59
2023/10/21 02:26:33;;;;;;;0.50;0.50;;;;;;;4.40;68.68;99402.56;5005295;28;20034;-61
2023/10/21 02:28:58;;;;;;;0.80;0.80;;;;;;;4.43;68.63;99395.72;5004082;28;20018;-60
2023/10/21 02:31:23;;;;;;;0.45;0.45;;;;;;;4.31;69.05;99403.41;5005362;28;20031;-60
2023/10/21 02:33:48;;;;;;;0.40;0.40;;;;;;;4.25;69.50;99381.13;5005356;28;20034;-61
2023/10/21 02:36:14;;;;;;;0.77;0.77;;;;;;;4.20;69.78;99388.81;5005545;28;20030;-59
2023/10/21 02:38:39;;;;;;;0.80;0.80;;;;;;;4.17;70.24;99406.81;5005175;28;20030;-60
2023/10/21 02:41:05;;;;;;;0.50;0.50;;;;;;;3.97;70.96;99404.22;5005343;28;20022;-60
2023/10/21 02:43:32;;;;;;;0.45;0.45;;;;;;;3.93;71.49;99382.78;5005200;28;20046;-61
2023/10/21 02:46:06;;;;;;;0.73;0.68;;;;;;;3.72;72.09;99384.44;5005169;28;20026;-61
2023/10/21 02:48:31;;;;;;;1.67;0.85;;;;;;;3.62;72.81;99390.41;5005381;28;20035;-63
2023/10/21 02:50:57;;;;;;;0.50;0.50;;;;;;;3.65;73.15;99387.84;5006852;28;20022;-63
2023/10/21 02:53:22;;;;;;;0.50;0.50;;;;;;;3.55;73.88;99393.78;5008841;28;20030;-62
2023/10/21 02:55:47;;;;;;;0.50;0.50;;;;;;;3.46;74.42;99372.41;5008894;28;20105;-63
2023/10/21 02:58:12;;;;;;;0.45;0.45;;;;;;;3.30;75.38;99376.59;5008726;28;20038;-63
2023/10/21 03:00:40;;;;;;;0.60;0.60;;;;;;;3.45;75.39;99373.22;5008658;28;20030;-62
2023/10/21 03:03:06;;;;;;;0.47;0.47;;;;;;;3.44;75.97;99384.34;5008639;28;20026;-64
2023/10/21 03:05:31;;;;;;;0.60;0.60;;;;;;;3.32;76.59;99381.75;5008734;28;20391;-63
2023/10/21 03:07:56;;;;;;;0.50;0.50;;;;;;;3.37;77.22;99381.75;5008475;28;20030;-64
2023/10/21 03:10:22;;;;;;;0.50;0.50;;;;;;;3.22;78.20;99403.91;5008493;28;20030;-63
2023/10/21 03:12:48;;;;;;;0.50;0.50;;;;;;;3.19;78.58;99386.81;4990734;28;20032;-64
2023/10/21 03:15:13;;;;;;;0.40;0.40;;;;;;;3.30;78.90;99394.56;5008511;28;20026;-64
2023/10/21 03:17:39;;;;;;;0.50;0.50;;;;;;;3.03;79.87;99390.13;5008470;28;20057;-64
2023/10/21 03:20:06;;;;;;;0.50;0.50;;;;;;;2.89;80.77;99401.13;5008149;28;20066;-63
2023/10/21 03:22:32;;;;;;;0.55;0.55;;;;;;;3.05;80.80;99394.41;5008180;28;20023;-64
2023/10/21 03:24:57;;;;;;;0.45;0.45;;;;;;;3.07;80.76;99389.28;5008145;28;20102;-64
2023/10/21 03:27:22;;;;;;;0.50;0.50;;;;;;;3.20;80.44;99367.13;5008239;28;20450;-65
2023/10/21 03:29:48;;;;;;;0.50;0.50;;;;;;;3.04;81.17;99374.75;5008193;28;20058;-64
2023/10/21 03:32:13;;;;;;;0.60;0.60;;;;;;;2.82;82.68;99373.75;5007953;28;20022;-64
2023/10/21 03:34:38;;;;;;;0.40;0.40;;;;;;;2.81;83.23;99374.63;5006708;28;20041;-65
2023/10/21 03:37:04;;;;;;;0.50;0.50;;;;;;;3.08;82.99;99378.19;5008169;28;20018;-64
2023/10/21 03:39:29;;;;;;;0.90;0.90;;;;;;;2.90;83.58;99394.31;5008063;28;20086;-64
2023/10/21 03:41:55;;;;;;;6.05;0.88;;;;;;;3.04;84.08;99353.38;5007845;28;20050;-64
2023/10/21 03:44:20;;;;;;;0.55;0.55;;;;;;;2.92;84.25;99338.78;5007861;28;20035;-65
2023/10/21 03:46:45;;;;;;;0.50;0.50;;;;;;;2.91;84.08;99355.00;5007665;28;20485;-65
2023/10/21 03:49:11;;;;;;;0.50;0.50;;;;;;;2.81;85.07;99367.75;5007756;28;20106;-65
2023/10/21 03:51:37;;;;;;;0.50;0.50;;;;;;;2.68;85.88;99360.84;5007634;28;20119;-65
2023/10/21 03:54:02;;;;;;;0.40;0.40;;;;;;;2.55;86.32;99341.97;5007784;28;20038;-64
2023/10/21 03:56:28;;;;;;;0.40;0.40;;;;;;;2.48;86.79;99364.13;5007657;28;20022;-64
2023/10/21 03:58:53;;;;;;;0.50;0.50;;;;;;;2.45;87.14;99358.97;5007617;28;20036;-64
2023/10/21 04:01:20;;;;;;;0.50;0.50;;;;;;;2.68;86.96;99361.72;5007516;28;20061;-65
2023/10/21 04:03:46;;;;;;;0.50;0.50;;;;;;;2.62;87.03;99353.13;5007601;28;20030;-65
2023/10/21 04:06:13;;;;;;;1.33;1.23;;;;;;;2.42;87.50;99351.25;5007539;28;20153;-65
2023/10/21 04:08:39;;;;;;;0.70;0.70;;;;;;;2.69;87.28;99366.00;5007485;28;20139;-65
2023/10/21 04:11:05;;;;;;;0.60;0.60;;;;;;;2.70;87.42;99354.88;5007652;28;20422;-64
2023/10/21 04:13:31;;;;;;;0.40;0.40;;;;;;;2.85;86.76;99378.91;5007212;28;20086;-64
2023/10/21 04:15:57;;;;;;;0.50;0.50;;;;;;;2.55;87.86;99370.16;5022470;28;20053;-65
2023/10/21 04:18:23;;;;;;;0.40;0.40;;;;;;;2.79;87.28;99373.75;5007209;28;20030;-66
2023/10/21 04:20:48;;;;;;;0.40;0.40;;;;;;;2.52;88.20;99371.00;5005870;28;20445;-64
2023/10/21 04:23:14;;;;;;;0.50;0.50;;;;;;;2.42;88.74;99395.69;5006952;28;20022;-64
2023/10/21 04:25:40;;;;;;;0.50;0.50;;;;;;;2.51;88.66;99396.59;5007276;28;20018;-65
2023/10/21 04:28:05;;;;;;;0.40;0.40;;;;;;;2.41;89.03;99385.41;5007077;28;20121;-66
2023/10/21 04:30:31;;;;;;;0.40;0.40;;;;;;;2.35;89.24;99366.59;5006927;28;20030;-65
2023/10/21 04:32:57;;;;;;;0.40;0.40;;;;;;;2.33;89.45;99375.09;5005421;28;20022;-65
2023/10/21 04:35:22;;;;;;;0.40;0.40;;;;;;;2.32;89.58;99363.13;5006951;28;20080;-66
2023/10/21 04:37:48;;;;;;;0.50;0.50;;;;;;;2.31;89.58;99374.22;5006944;28;20169;-64
2023/10/21 04:40:13;;;;;;;0.50;0.50;;;;;;;2.29;89.59;99397.28;5006774;28;20053;-65
2023/10/21 04:42:38;;;;;;;0.40;0.40;;;;;;;2.26;89.83;99381.00;5006794;28;20034;-64
2023/10/21 04:45:06;;;;;;;0.40;0.40;;;;;;;2.19;89.92;99375.81;5006685;28;20082;-64
2023/10/21 04:47:32;;;;;;;0.40;0.40;;;;;;;2.16;90.00;99378.38;5006644;28;20061;-64
2023/10/21 04:49:57;;;;;;;0.40;0.40;;;;;;;2.14;90.23;99392.84;5006652;28;20029;-64
2023/10/21 04:52:22;;;;;;;0.50;0.50;;;;;;;2.29;90.11;99406.66;5005052;28;20034;-63
2023/10/21 04:54:48;;;;;;;0.47;0.47;;;;;;;2.30;89.73;99375.91;5006527;28;20018;-64
2023/10/21 04:57:14;;;;;;;0.45;0.45;;;;;;;2.15;90.19;99384.34;5006455;28;20041;-64
2023/10/21 04:59:39;;;;;;;0.40;0.40;;;;;;;2.12;90.41;99392.00;5006710;28;20037;-64
2023/10/21 05:02:05;;;;;;;0.45;0.45;;;;;;;2.10;90.77;99383.44;5004938;28;20033;-64
2023/10/21 05:04:31;;;;;;;0.40;0.40;;;;;;;2.36;89.58;99405.88;5006547;28;20049;-65
2023/10/21 05:06:56;;;;;;;0.40;0.40;;;;;;;2.14;90.45;99387.72;5006247;28;20034;-65
2023/10/21 05:09:22;;;;;;;0.43;0.43;;;;;;;2.21;90.40;99401.44;5004867;28;20073;-63
2023/10/21 05:11:47;;;;;;;0.50;0.50;;;;;;;2.14;90.38;99395.41;5006394;28;20022;-64
2023/10/21 05:14:13;;;;;;;0.40;0.40;;;;;;;2.22;90.73;99401.47;5005741;28;20076;-64
2023/10/21 05:16:39;;;;;;;0.50;0.50;;;;;;;2.14;90.64;99418.44;5005245;28;20034;-65
2023/10/21 05:19:07;;;;;;;0.40;0.40;;;;;;;2.09;91.12;99440.63;5004861;28;20022;-64
2023/10/21 05:21:33;;;;;;;0.40;0.40;;;;;;;2.30;90.71;99426.31;5005998;28;20050;-64
2023/10/21 05:23:58;;;;;;;0.50;0.50;;;;;;;2.04;91.25;99450.81;5006108;28;20459;-64
2023/10/21 05:26:25;;;;;;;0.50;0.50;;;;;;;2.02;91.26;99415.78;5004809;28;20057;-65
2023/10/21 05:28:50;;;;;;;0.50;0.50;;;;;;;1.97;91.92;99425.97;5006090;28;20487;-64
2023/10/21 05:31:16;;;;;;;0.45;0.45;;;;;;;1.94;92.01;99418.25;5006090;28;20038;-63
2023/10/21 05:33:41;;;;;;;0.50;0.50;;;;;;;1.90;92.17;99432.72;5005912;28;20037;-64
2023/10/21 05:36:06;;;;;;;0.50;0.50;;;;;;;1.87;92.37;99429.28;5006020;28;20116;-64
2023/10/21 05:38:32;;;;;;;0.50;0.50;;;;;;;2.12;91.47;99430.41;5006111;28;20042;-64
2023/10/21 05:40:58;;;;;;;0.50;0.50;;;;;;;1.93;91.97;99457.50;5005962;28;20030;-64
2023/10/21 05:43:23;;;;;;;0.50;0.50;;;;;;;2.07;91.39;99437.16;5005880;28;20026;-65
2023/10/21 05:45:49;;;;;;;0.40;0.40;;;;;;;1.83;92.08;99436.06;5005919;28;20498;-64
2023/10/21 05:48:14;;;;;;;0.60;0.60;;;;;;;1.89;92.56;99446.34;5005871;28;20019;-65
2023/10/21 05:50:40;;;;;;;0.40;0.40;;;;;;;2.04;91.61;99437.13;5004788;28;20031;-65
2023/10/21 05:53:05;;;;;;;0.40;0.40;;;;;;;1.97;92.19;99455.00;5005782;28;20033;-64
2023/10/21 05:55:31;;;;;;;0.40;0.40;;;;;;;1.65;92.62;99442.66;5005881;28;20034;-65
2023/10/21 05:57:56;;;;;;;0.40;0.40;;;;;;;1.73;93.02;99463.22;5005711;28;20034;-64
2023/10/21 06:00:22;;;;;;;0.50;0.50;;;;;;;1.70;93.11;99484.53;5004599;28;20026;-65
2023/10/21 06:02:47;;;;;;;0.50;0.50;;;;;;;1.69;93.36;99464.88;5005717;28;20026;-64
2023/10/21 06:05:14;;;;;;;0.47;0.47;;;;;;;1.68;93.50;99452.06;5005879;28;20034;-64
2023/10/21 06:07:40;;;;;;;0.43;0.43;;;;;;;1.72;93.13;99457.28;5005776;28;20114;-64
2023/10/21 06:10:06;;;;;;;0.50;0.50;;;;;;;1.68;93.48;99452.94;5005457;28;20026;-65
2023/10/21 06:12:32;;;;;;;0.43;0.43;;;;;;;1.62;93.45;99465.66;5005695;28;20104;-63
2023/10/21 06:14:58;;;;;;;0.40;0.40;;;;;;;1.59;93.51;99448.56;5005613;28;20026;-64
2023/10/21 06:17:24;;;;;;;0.40;0.40;;;;;;;1.57;93.72;99441.69;5004415;28;20046;-64
2023/10/21 06:19:49;;;;;;;0.50;0.50;;;;;;;1.86;92.85;99441.22;5005636;28;20061;-66
2023/10/21 06:22:14;;;;;;;0.50;0.50;;;;;;;1.76;93.05;99439.41;5005635;28;20026;-65
2023/10/21 06:24:40;;;;;;;0.47;0.47;;;;;;;1.70;93.12;99455.50;5005476;28;20463;-64
2023/10/21 06:27:07;;;;;;;0.40;0.40;;;;;;;1.51;93.49;99474.88;5008886;28;20094;-64
2023/10/21 06:29:36;;;;;;;0.50;0.50;;;;;;;1.45;93.56;99456.06;5009142;28;20086;-64
2023/10/21 06:32:06;;;;;;;0.40;0.40;;;;;;;1.42;94.00;99455.16;5008965;28;20026;-62
2023/10/21 06:34:35;;;;;;;0.50;0.50;;;;;;;1.40;94.16;99478.16;5008950;28;20385;-65
2023/10/21 06:37:00;;;;;;;0.40;0.40;;;;;;;1.36;94.26;99445.69;5008649;28;20080;-67
2023/10/21 06:39:26;;;;;;;0.40;0.40;;;;;;;1.33;94.39;99459.31;5009066;28;20022;-65
2023/10/21 06:41:52;;;;;;;0.50;0.50;;;;;;;1.43;93.97;99441.53;5008800;28;20030;-65
2023/10/21 06:44:17;;;;;;;0.40;0.40;;;;;;;1.53;93.60;99447.63;5007545;28;20046;-66
2023/10/21 06:46:43;;;;;;;0.50;0.50;;;;;;;1.39;93.60;99429.56;5008825;28;20030;-66
2023/10/21 06:49:09;;;;;;;0.45;0.45;;;;;;;1.27;94.04;99427.66;5007689;28;20160;-65
2023/10/21 06:51:36;;;;;;;0.50;0.50;;;;;;;1.29;94.34;99446.47;5008853;28;20073;-63
2023/10/21 06:54:01;;;;;;;0.50;0.50;;;;;;;1.28;94.75;99462.66;5008579;28;20034;-66
2023/10/21 06:56:27;;;;;;;0.50;0.50;;;;;;;1.62;93.90;99432.41;5008837;28;20022;-67
2023/10/21 06:58:52;;;;;;;0.50;0.50;;;;;;;1.53;93.50;99427.16;5008776;28;20053;-68
2023/10/21 07:01:18;;;;;;;0.43;0.43;;;;;;;1.34;94.26;99426.94;5008664;28;20022;-67
2023/10/21 07:03:43;;;;;;;0.50;0.50;;;;;;;1.26;94.83;99439.63;5008549;28;20058;-68
2023/10/21 07:06:09;;;;;;;0.45;0.45;;;;;;;1.23;94.95;99432.75;5008336;28;20022;-68
2023/10/21 07:08:34;;;;;;;0.50;0.50;;;;;;;1.44;94.54;99427.88;5008105;28;20022;-68
2023/10/21 07:11:00;;;;;;;1.25;1.25;;;;;;;1.25;94.78;99406.34;5008533;28;20030;-68
2023/10/21 07:13:25;;;;;;;0.40;0.40;;;;;;;1.24;95.15;99392.69;5008230;28;20030;-69
2023/10/21 07:15:51;;;;;;;0.40;0.40;;;;;;;1.39;94.87;99398.84;5008375;28;20022;-69
2023/10/21 07:18:17;;;;;;;0.50;0.50;;;;;;;1.45;94.07;99434.75;5007118;28;20026;-68
2023/10/21 07:20:43;;;;;;;0.50;0.50;;;;;;;1.30;94.94;99399.59;5007060;28;20049;-68
2023/10/21 07:23:08;;;;;;;0.50;0.50;;;;;;;1.27;95.29;99412.34;5008121;28;20033;-69
2023/10/21 07:25:36;;;;;;;0.50;0.50;;;;;;;1.26;95.52;99408.06;5008385;28;20099;-67
2023/10/21 07:28:02;;;;;;;0.50;0.50;;;;;;;1.27;95.82;99385.06;5007852;28;20028;-69
2023/10/21 07:30:28;;;;;;;0.40;0.40;;;;;;;1.32;96.45;99396.22;5007825;28;20086;-69
2023/10/21 07:32:54;;;;;;;0.40;0.40;;;;;;;1.52;96.06;99410.94;5007244;28;20026;-68
2023/10/21 07:35:19;;;;;;;0.43;0.43;;;;;;;1.46;95.75;99405.75;5007356;28;20129;-64
2023/10/21 07:37:44;;;;;;;0.50;0.50;;;;;;;1.42;96.14;99411.69;5005845;28;20022;-66
2023/10/21 07:40:10;;;;;;;0.40;0.40;;;;;;;1.64;95.82;99394.03;5007612;28;20537;-66
2023/10/21 07:42:36;;;;;;;0.40;0.40;;;;;;;1.55;95.24;99405.03;5007503;28;20022;-67
2023/10/21 07:45:03;;;;;;;0.40;0.40;;;;;;;1.64;95.44;99397.47;5005262;28;20027;-68
2023/10/21 07:47:29;;;;;;;0.40;0.40;;;;;;;1.76;94.88;99399.28;5005110;28;20393;-67
2023/10/21 07:49:54;;;;;;;0.50;0.50;;;;;;;1.75;95.20;99422.31;5007431;28;20022;-67
2023/10/21 07:52:20;;;;;;;0.40;0.40;;;;;;;1.58;95.74;99415.31;5006355;28;20026;-70
2023/10/21 07:54:45;;;;;;;0.50;0.50;;;;;;;1.60;96.09;99400.81;5007300;28;20033;-71
2023/10/21 07:57:11;;;;;;;0.40;0.40;;;;;;;1.54;96.43;99403.28;5007409;28;20022;-68
2023/10/21 07:59:36;;;;;;;0.50;0.50;;;;;;;1.55;96.72;99400.75;5007193;28;20019;-68
2023/10/21 08:02:01;;;;;;;0.50;0.50;;;;;;;1.68;96.84;99399.19;5007272;28;20033;-67
2023/10/21 08:04:27;;;;;;;0.50;0.50;;;;;;;1.91;96.33;99407.97;5005839;28;20026;-67
2023/10/21 08:06:52;;;;;;;0.47;0.47;;;;;;;1.77;96.52;99405.28;5005999;28;20026;-67
2023/10/21 08:09:18;;;;;;;0.50;0.50;;;;;;;1.97;95.98;99397.81;5006783;28;20034;-67
2023/10/21 08:11:44;;;;;;;0.40;0.40;;;;;;;1.89;96.33;99386.63;5006786;28;20053;-68
2023/10/21 08:14:13;;;;;;;0.50;0.50;;;;;;;2.01;96.28;99414.06;5006831;28;20088;-65
2023/10/21 08:16:39;;;;;;;0.50;0.50;;;;;;;1.98;96.38;99402.09;5006884;28;20149;-66
2023/10/21 08:19:05;;;;;;;0.50;0.50;;;;;;;2.03;96.51;99397.03;5006779;28;20027;-66
2023/10/21 08:21:33;;;;;;;0.40;0.40;;;;;;;2.08;96.63;99426.94;5006614;28;20057;-67
2023/10/21 08:23:59;;;;;;;0.40;0.40;;;;;;;2.16;96.58;99400.53;5006866;28;20018;-66
2023/10/21 08:26:25;;;;;;;0.40;0.40;;;;;;;2.18;96.05;99399.72;4989125;28;20030;-66
2023/10/21 08:28:50;;;;;;;0.40;0.40;;;;;;;2.14;96.52;99394.56;5006787;28;20029;-67
2023/10/21 08:31:15;;;;;;;0.50;0.50;;;;;;;2.11;96.61;99410.75;5005073;28;20022;-66
2023/10/21 08:33:41;;;;;;;0.40;0.40;;;;;;;2.06;97.57;99407.31;5006217;28;20089;-67
2023/10/21 08:36:16;;;;;;;0.40;0.40;;;;;;;2.05;97.49;99411.56;5006621;28;20026;-67
2023/10/21 08:38:41;;;;;;;0.50;0.50;;;;;;;2.28;97.55;99402.38;5006563;28;20029;-66
2023/10/21 08:41:11;;;;;;;0.40;0.40;;;;;;;2.51;96.17;99399.16;5006647;28;20018;-67
2023/10/21 08:43:37;;;;;;;0.40;0.40;;;;;;;2.34;96.74;99387.06;5005960;28;20022;-66
2023/10/21 08:46:05;;;;;;;0.50;0.50;;;;;;;2.33;97.11;99404.13;5006492;28;20500;-66
2023/10/21 08:48:30;;;;;;;0.40;0.40;;;;;;;2.52;97.15;99406.00;5004367;28;20034;-67
2023/10/21 08:50:57;;;;;;;0.45;0.45;;;;;;;2.68;95.49;99405.28;5006362;28;20030;-66
2023/10/21 08:53:24;;;;;;;0.40;0.40;;;;;;;2.59;95.76;99424.00;5005649;28;20018;-66
2023/10/21 08:55:50;;;;;;;0.50;0.50;;;;;;;2.46;96.85;99399.13;5006205;28;20033;-65
2023/10/21 08:58:15;;;;;;;0.40;0.40;;;;;;;2.63;96.47;99419.75;5006332;28;20022;-66
2023/10/21 09:00:41;;;;;;;0.50;0.50;;;;;;;2.61;96.21;99411.19;5005687;28;20037;-65
2023/10/21 09:03:08;;;;;;;0.40;0.40;;;;;;;2.77;95.93;99439.50;5004523;28;20026;-66
2023/10/21 09:05:34;;;;;;;0.50;0.50;;;;;;;2.59;96.79;99415.44;5004755;28;20394;-66
2023/10/21 09:07:59;;;;;;;0.40;0.40;;;;;;;2.61;97.26;99421.44;5005035;28;20022;-66
2023/10/21 09:10:25;;;;;;;0.40;0.40;;;;;;;2.69;96.90;99409.56;5005399;28;20053;-66
2023/10/21 09:12:50;;;;;;;0.40;0.40;;;;;;;2.68;97.24;99415.53;5005561;28;20049;-66
2023/10/21 09:15:16;;;;;;;0.40;0.40;;;;;;;2.83;96.70;99403.66;5006196;28;20030;-66
2023/10/21 09:17:45;;;;;;;0.40;0.40;;;;;;;2.85;96.70;99410.53;5006052;28;20022;-65
2023/10/21 09:20:15;;;;;;;0.45;0.45;;;;;;;2.94;96.29;99408.88;5005868;28;20058;-66
2023/10/21 09:22:43;;;;;;;0.40;0.40;;;;;;;2.80;96.76;99426.72;5005901;28;20030;-66
2023/10/21 09:25:19;;;;;;;0.40;0.40;;;;;;;2.90;96.17;99425.94;5006104;28;20072;-66
2023/10/21 09:27:58;;;;;;;0.40;0.40;;;;;;;2.99;95.89;99416.59;5005636;28;20053;-66
2023/10/21 09:30:27;;;;;;;0.40;0.40;;;;;;;2.87;96.47;99427.63;5004798;28;20022;-66
2023/10/21 09:33:06;;;;;;;0.40;0.40;;;;;;;2.86;96.97;99421.63;5004605;28;20051;-65
2023/10/21 09:35:32;;;;;;;0.50;0.50;;;;;;;2.93;96.57;99443.91;5006000;28;20061;-66
2023/10/21 09:38:13;;;;;;;0.40;0.40;;;;;;;2.93;96.52;99433.66;5005729;28;20027;-66
2023/10/21 09:40:39;;;;;;;0.55;0.55;;;;;;;3.11;96.16;99429.50;5005999;28;20051;-65
2023/10/21 09:43:06;;;;;;;0.95;0.95;;;;;;;3.35;94.38;99420.25;5004526;28;20042;-65
2023/10/21 09:45:34;;;;;;;0.40;0.40;;;;;;;3.31;93.18;99413.34;5005568;28;20026;-66
2023/10/21 09:48:05;;;;;;;0.40;0.40;;;;;;;3.15;94.43;99440.63;5005641;28;20022;-65
2023/10/21 09:50:33;;;;;;;0.50;0.50;;;;;;;3.24;94.39;99415.06;5005864;28;20394;-65
2023/10/21 09:53:08;;;;;;;0.40;0.40;;;;;;;3.30;94.04;99412.53;5005722;28;20026;-65
2023/10/21 09:55:34;;;;;;;0.40;0.40;;;;;;;3.31;94.41;99436.44;5005833;28;20026;-64
2023/10/21 09:58:00;;;;;;;0.50;0.50;;;;;;;3.29;94.45;99400.53;5005838;28;20031;-64
2023/10/21 10:00:26;;;;;;;0.40;0.40;;;;;;;3.20;95.24;99421.88;5008162;28;20057;-65
2023/10/21 10:02:53;;;;;;;0.40;0.40;;;;;;;3.43;93.86;99410.00;5009691;28;20030;-64
2023/10/21 10:05:20;;;;;;;0.50;0.50;;;;;;;3.34;94.82;99408.25;5009385;28;20045;-64
2023/10/21 10:07:47;;;;;;;0.40;0.40;;;;;;;3.31;95.31;99419.34;5009694;28;20027;-64
2023/10/21 10:10:16;;;;;;;0.40;0.40;;;;;;;3.69;93.50;99442.66;5009746;28;20033;-65
2023/10/21 10:13:06;;;;;;;0.40;0.40;;;;;;;3.76;92.57;99420.41;5009295;28;20030;-66
2023/10/21 10:15:32;;;;;;;0.40;0.40;;;;;;;3.55;93.48;99422.03;5009631;28;20073;-65
2023/10/21 10:18:03;;;;;;;0.50;0.50;;;;;;;3.51;94.46;99422.88;5009509;28;20025;-65
2023/10/21 10:20:29;;;;;;;0.40;0.40;;;;;;;3.49;94.88;99411.72;5009371;28;20050;-66
2023/10/21 10:22:55;;;;;;;0.40;0.40;;;;;;;3.51;95.34;99420.31;5009351;28;20022;-67
2023/10/21 10:25:26;;;;;;;0.40;0.40;;;;;;;3.67;94.10;99416.09;5009516;28;20038;-67
2023/10/21 10:28:00;;;;;;;0.40;0.40;;;;;;;3.53;94.99;99411.75;5009209;28;20022;-66
2023/10/21 10:30:30;;;;;;;0.50;0.50;;;;;;;3.79;93.94;99435.81;5009361;28;20105;-67
2023/10/21 10:32:56;;;;;;;0.50;0.50;;;;;;;3.61;93.86;99405.81;4991510;28;20089;-65
2023/10/21 10:35:37;;;;;;;0.50;0.50;;;;;;;3.80;93.37;99429.84;5009310;28;20030;-65
2023/10/21 10:38:03;;;;;;;3.63;0.60;;;;;;;3.56;94.10;99411.75;5009194;28;20125;-66
2023/10/21 10:40:33;;;;;;;0.40;0.40;;;;;;;3.69;94.34;99415.25;5007725;28;20026;-65
2023/10/21 10:42:58;;;;;;;0.40;0.40;;;;;;;3.68;94.35;99400.69;5007627;28;20030;-65
2023/10/21 10:45:25;;;;;;;0.40;0.40;;;;;;;3.72;94.55;99402.41;5009121;28;20037;-64
2023/10/21 10:48:02;;;;;;;0.40;0.40;;;;;;;3.73;94.99;99426.38;5008925;28;20056;-65
2023/10/21 10:50:28;;;;;;;0.40;0.40;;;;;;;3.68;95.39;99421.25;5008998;28;20050;-65
2023/10/21 10:52:55;;;;;;;0.50;0.50;;;;;;;3.69;95.76;99399.84;5008805;28;20022;-65
2023/10/21 10:55:21;;;;;;;1.45;0.93;;;;;;;3.72;96.27;99406.72;5008792;28;20034;-62
2023/10/21 10:57:47;;;;;;;0.47;0.47;;;;;;;3.86;95.27;99409.31;5008874;28;20023;-64
2023/10/21 11:00:20;;;;;;;0.50;0.50;;;;;;;3.87;95.49;99413.59;5007402;28;20390;-64
2023/10/21 11:02:47;;;;;;;0.40;0.40;;;;;;;4.05;94.40;99401.66;5007370;28;20026;-64
2023/10/21 11:05:19;;;;;;;0.50;0.50;;;;;;;4.05;94.42;99419.63;5007232;28;20111;-63
2023/10/21 11:07:46;;;;;;;0.50;0.50;;;;;;;4.10;94.40;99405.09;5023490;28;20383;-63
2023/10/21 11:10:14;;;;;;;0.45;0.45;;;;;;;3.97;95.52;99410.22;5008606;28;20026;-62
2023/10/21 11:12:40;;;;;;;0.40;0.40;;;;;;;3.93;96.19;99395.63;5007763;28;20181;-63
2023/10/21 11:15:06;;;;;;;0.52;0.52;;;;;;;4.14;95.76;99418.81;5023768;28;20022;-63
2023/10/21 11:17:32;;;;;;;0.45;0.45;;;;;;;4.23;95.22;99416.25;5008553;28;20041;-61
2023/10/21 11:19:59;;;;;;;0.50;0.50;;;;;;;4.27;94.94;99417.97;5008373;28;20765;-61
2023/10/21 11:22:28;;;;;;;0.50;0.50;;;;;;;4.14;96.04;99406.81;5008351;28;20433;-61
2023/10/21 11:24:53;;;;;;;0.40;0.40;;;;;;;4.19;96.17;99420.53;5008296;28;20146;-61
2023/10/21 11:27:19;;;;;;;0.63;0.60;;;;;;;4.40;94.44;99413.69;5008156;28;20050;-61
2023/10/21 11:29:45;;;;;;;0.40;0.40;;;;;;;4.46;94.00;99431.69;5008119;28;20053;-62
2023/10/21 11:32:12;;;;;;;0.70;0.70;;;;;;;4.56;93.54;99413.69;5008256;28;20077;-62
2023/10/21 11:34:37;;;;;;;1.88;0.55;;;;;;;4.32;94.33;99411.13;5007935;28;20105;-61
2023/10/21 11:37:04;;;;;;;0.60;0.60;;;;;;;4.36;94.60;99422.25;5008195;28;20378;-62